Time;durP1;ratioP1;P1;durP2;ratioP2;P2;SDS_P1;SDS_P2;PMS_P1;PMS_P2;Temp;Humidity;BMP_temperature;BMP_pressure;BME280_temperature;BME280_humidity;BME280_pressure;Samples;Min_cycle;Max_cycle;Signal;HPM_P1;HPM_P2
2022/04/21 00:02:32;;;;;;;9.45;4.68;;;;;;;;;;5067971;28;20427;-70
2022/04/21 00:05:15;;;;;;;6.95;5.05;;;;;;;;;;5068285;28;20071;-70
2022/04/21 00:07:57;;;;;;;7.90;4.40;;;;;;;;;;5081309;28;20047;-70
2022/04/21 00:10:26;;;;;;;8.68;4.93;;;;;;;;;;5084690;28;20423;-70
2022/04/21 00:12:55;;;;;;;8.32;4.28;;;;;;;;;;5067207;28;20049;-70
2022/04/21 00:15:30;;;;;;;8.60;4.25;;;;;;;;;;5082467;28;20112;-70
2022/04/21 00:18:35;;;;;;;9.05;4.95;;;;;;;;;;5070274;28;20043;-70
2022/04/21 00:23:25;;;;;;;6.00;4.25;;;;;;;;;;5070519;28;20402;-70
2022/04/21 00:24:51;;;;;;;7.40;4.80;;;;;;;;;;5066871;28;20460;-70
2022/04/21 00:27:32;;;;;;;8.30;5.15;;;;;;;;;;5068819;28;20137;-70
2022/04/21 00:30:19;;;;;;;9.65;4.90;;;;;;;;;;5051264;28;20396;-70
2022/04/21 00:33:06;;;;;;;7.78;4.70;;;;;;;;;;5053013;28;20443;-70
2022/04/21 00:35:41;;;;;;;9.07;5.13;;;;;;;;;;5068536;28;20041;-70
2022/04/21 00:38:29;;;;;;;7.57;4.63;;;;;;;;;;5066857;28;20044;-70
2022/04/21 00:41:30;;;;;;;9.60;5.20;;;;;;;;;;5051842;28;20498;-69
2022/04/21 00:44:00;;;;;;;9.45;5.03;;;;;;;;;;5051411;28;20058;-70
2022/04/21 00:46:42;;;;;;;9.80;5.05;;;;;;;;;;5066860;28;20412;-70
2022/04/21 00:52:24;;;;;;;9.73;4.68;;;;;;;;;;5032817;28;20456;-71
2022/04/21 00:55:02;;;;;;;8.38;5.45;;;;;;;;;;5064112;28;20045;-70
2022/04/21 00:57:41;;;;;;;6.80;4.95;;;;;;;;;;5067087;28;20052;-71
2022/04/21 01:03:07;;;;;;;8.65;5.45;;;;;;;;;;5028349;28;20098;-70
2022/04/21 01:05:49;;;;;;;6.93;4.60;;;;;;;;;;5064923;28;20044;-70
2022/04/21 01:12:42;;;;;;;8.98;5.45;;;;;;;;;;4996516;28;20485;-70
2022/04/21 01:15:11;;;;;;;;;;;;;;;;;;5006670;28;20049;-70
2022/04/21 01:23:59;;;;;;;7.35;5.28;;;;;;;;;;4997624;28;20421;-70
2022/04/21 01:29:50;;;;;;;8.60;5.45;;;;;;;;;;5006146;28;20045;-70
2022/04/21 01:32:20;;;;;;;11.05;5.63;;;;;;;;;;5007123;28;20374;-70
2022/04/21 01:34:52;;;;;;;9.20;5.63;;;;;;;;;;4992294;28;20652;-70
2022/04/21 01:44:12;;;;;;;9.45;5.68;;;;;;;;;;4992240;28;20053;-70
2022/04/21 01:46:59;;;;;;;7.95;5.53;;;;;;;;;;4994428;28;20049;-70
2022/04/21 01:56:00;;;;;;;7.70;5.43;;;;;;;;;;4993638;28;20121;-70
2022/04/21 02:01:50;;;;;;;11.25;5.53;;;;;;;;;;4943727;28;20098;-69
2022/04/21 02:07:40;;;;;;;11.63;5.60;;;;;;;;;;4930760;29;20051;-70
2022/04/21 02:10:32;;;;;;;9.27;6.32;;;;;;;;;;4930760;29;20122;-70
2022/04/21 02:13:27;;;;;;;9.75;6.03;;;;;;;;;;4946916;29;20511;-69
2022/04/21 02:15:58;;;;;;;9.98;5.78;;;;;;;;;;4931708;29;20538;-69
2022/04/21 02:18:31;;;;;;;9.57;6.55;;;;;;;;;;4930298;29;20035;-69
2022/04/21 02:21:12;;;;;;;9.10;6.03;;;;;;;;;;4879196;29;20638;-69
2022/04/21 02:24:00;;;;;;;10.90;6.68;;;;;;;;;;4862513;29;20399;-69
2022/04/21 02:29:52;;;;;;;9.38;6.00;;;;;;;;;;4949063;28;20051;-69
2022/04/21 02:32:32;;;;;;;;;;;;;;;;;;;;;
2022/04/21 02:35:22;;;;;;;9.45;6.13;;;;;;;;;;5066700;28;20041;-70
2022/04/21 02:41:15;;;;;;;11.05;6.47;;;;;;;;;;4977604;28;20394;-70
2022/04/21 02:44:04;;;;;;;9.68;6.65;;;;;;;;;;5000578;28;20391;-69
2022/04/21 02:46:47;;;;;;;10.45;7.18;;;;;;;;;;5065786;28;20646;-69
2022/04/21 02:49:45;;;;;;;9.57;6.80;;;;;;;;;;5049072;28;20135;-70
2022/04/21 02:52:41;;;;;;;10.25;6.88;;;;;;;;;;5066182;28;20385;-70
2022/04/21 03:04:28;;;;;;;10.70;7.50;;;;;;;;;;5057145;28;20055;-70
2022/04/21 03:06:54;;;;;;;11.48;6.82;;;;;;;;;;5069738;28;20040;-69
2022/04/21 03:09:47;;;;;;;12.48;7.80;;;;;;;;;;5069659;28;20423;-69
2022/04/21 03:12:32;;;;;;;11.77;7.82;;;;;;;;;;5071082;28;20414;-69
2022/04/21 03:15:11;;;;;;;10.35;7.13;;;;;;;;;;5068060;28;20052;-70
2022/04/21 03:18:22;;;;;;;10.73;7.45;;;;;;;;;;5070158;28;20044;-69
2022/04/21 03:26:36;;;;;;;12.35;7.70;;;;;;;;;;5068266;28;20044;-69
2022/04/21 03:29:06;;;;;;;12.48;8.20;;;;;;;;;;5084545;28;20564;-69
2022/04/21 03:32:17;;;;;;;;;;;;;;;;;;;;;
2022/04/21 03:34:44;;;;;;;12.85;8.40;;;;;;;;;;5065700;28;20504;-70
2022/04/21 03:37:25;;;;;;;9.93;7.38;;;;;;;;;;5068388;28;20480;-69
2022/04/21 03:40:17;;;;;;;11.63;7.35;;;;;;;;;;5068402;28;20082;-70
2022/04/21 03:43:12;;;;;;;10.25;7.30;;;;;;;;;;5068986;28;20539;-69
2022/04/21 03:45:55;;;;;;;12.93;8.25;;;;;;;;;;5065712;28;20577;-70
2022/04/21 03:48:35;;;;;;;13.68;8.27;;;;;;;;;;5052477;28;20443;-69
2022/04/21 03:51:22;;;;;;;11.48;8.05;;;;;;;;;;5070190;28;20170;-69
2022/04/21 03:54:12;;;;;;;12.93;8.48;;;;;;;;;;5069383;28;20051;-70
2022/04/21 03:57:04;;;;;;;13.02;7.65;;;;;;;;;;5067963;28;20052;-70
2022/04/21 03:59:42;;;;;;;11.75;8.32;;;;;;;;;;5068943;28;20063;-70
2022/04/21 04:02:17;;;;;;;15.13;8.63;;;;;;;;;;5068949;28;20431;-69
2022/04/21 04:04:51;;;;;;;12.35;7.97;;;;;;;;;;5069555;28;20572;-69
2022/04/21 04:13:30;;;;;;;15.13;8.60;;;;;;;;;;5080965;28;20040;-69
2022/04/21 04:16:07;;;;;;;20.17;8.75;;;;;;;;;;5054399;28;20133;-69
2022/04/21 04:18:54;;;;;;;11.85;8.15;;;;;;;;;;5068753;28;20056;-69
2022/04/21 04:21:42;;;;;;;12.90;8.45;;;;;;;;;;5066289;28;20393;-70
2022/04/21 04:27:32;;;;;;;14.52;8.95;;;;;;;;;;5067908;28;20504;-69
2022/04/21 04:30:33;;;;;;;;;;;;;;;;;;;;;
2022/04/21 04:33:34;;;;;;;;;;;;;;;;;;;;;
2022/04/21 04:39:25;;;;;;;11.57;8.45;;;;;;;;;;5055296;28;20116;-69
2022/04/21 04:48:21;;;;;;;12.98;9.05;;;;;;;;;;5067142;28;20536;-70
2022/04/21 04:51:16;;;;;;;11.63;8.55;;;;;;;;;;5067416;28;20124;-69
2022/04/21 04:54:15;;;;;;;;;;;;;;;;;;;;;
2022/04/21 04:56:45;;;;;;;14.80;9.05;;;;;;;;;;5053447;28;20041;-70
2022/04/21 04:59:40;;;;;;;12.80;8.98;;;;;;;;;;5066200;28;20051;-70
2022/04/21 05:02:20;;;;;;;14.10;9.05;;;;;;;;;;5064410;28;20094;-70
2022/04/21 05:05:03;;;;;;;14.52;8.75;;;;;;;;;;5067085;28;20086;-69
2022/04/21 05:11:11;;;;;;;14.77;9.18;;;;;;;;;;5055936;28;20467;-70
2022/04/21 05:14:01;;;;;;;15.32;9.55;;;;;;;;;;5067127;28;20498;-69
2022/04/21 05:16:48;;;;;;;15.15;9.35;;;;;;;;;;5060579;28;20386;-70
2022/04/21 05:19:26;;;;;;;13.18;8.90;;;;;;;;;;5065849;28;20110;-69
2022/04/21 05:22:24;;;;;;;13.82;8.98;;;;;;;;;;5067766;28;20550;-69
2022/04/21 05:25:08;;;;;;;13.38;8.77;;;;;;;;;;5065788;28;20044;-70
2022/04/21 05:27:59;;;;;;;11.90;8.05;;;;;;;;;;5066214;28;20047;-70
2022/04/21 05:31:01;;;;;;;12.13;8.55;;;;;;;;;;5082184;28;20511;-68
2022/04/21 05:33:54;;;;;;;14.73;9.18;;;;;;;;;;5032011;28;20492;-70
2022/04/21 05:39:36;;;;;;;12.38;8.82;;;;;;;;;;5058798;28;20119;-69
2022/04/21 05:45:09;;;;;;;12.90;8.32;;;;;;;;;;5066130;28;20400;-69
2022/04/21 05:50:40;;;;;;;15.20;9.53;;;;;;;;;;5053273;28;20590;-68
2022/04/21 05:53:16;;;;;;;10.55;8.02;;;;;;;;;;5063759;28;20079;-68
2022/04/21 05:56:11;;;;;;;11.48;8.52;;;;;;;;;;5066338;28;21280;-68
2022/04/21 05:58:58;;;;;;;13.52;8.18;;;;;;;;;;5067916;28;20580;-68
2022/04/21 06:01:27;;;;;;;12.10;8.60;;;;;;;;;;5066626;28;20065;-68
2022/04/21 06:04:11;;;;;;;11.90;8.10;;;;;;;;;;5006230;28;20136;-68
2022/04/21 06:06:55;;;;;;;13.10;8.38;;;;;;;;;;4988668;28;20057;-68
2022/04/21 06:09:39;;;;;;;11.13;8.02;;;;;;;;;;5004434;28;20077;-68
2022/04/21 06:12:31;;;;;;;11.35;7.93;;;;;;;;;;5005405;28;20058;-68
2022/04/21 06:15:26;;;;;;;12.50;8.38;;;;;;;;;;4989251;28;20085;-68
2022/04/21 06:17:57;;;;;;;11.60;8.25;;;;;;;;;;4986802;28;20038;-68
2022/04/21 06:20:29;;;;;;;10.45;7.97;;;;;;;;;;4989155;28;20168;-68
2022/04/21 06:26:47;;;;;;;10.98;7.43;;;;;;;;;;4973645;28;20205;-68
2022/04/21 06:32:36;;;;;;;10.38;8.00;;;;;;;;;;4988964;28;20546;-69
2022/04/21 06:35:41;;;;;;;9.63;7.00;;;;;;;;;;4989341;28;20383;-69
2022/04/21 06:38:20;;;;;;;10.30;7.15;;;;;;;;;;4970137;28;20138;-69
2022/04/21 06:40:59;;;;;;;10.45;6.95;;;;;;;;;;5009524;28;20500;-69
2022/04/21 06:49:19;;;;;;;9.68;6.65;;;;;;;;;;5066064;28;20546;-68
2022/04/21 06:52:49;;;;;;;11.27;6.00;;;;;;;;;;5069843;28;20461;-69
2022/04/21 06:55:25;;;;;;;7.72;5.55;;;;;;;;;;5011634;28;20042;-69
2022/04/21 06:58:14;;;;;;;7.97;6.13;;;;;;;;;;5069095;28;20040;-69
2022/04/21 07:01:15;;;;;;;9.70;5.57;;;;;;;;;;5070230;28;20028;-69
2022/04/21 07:03:47;;;;;;;9.40;5.47;;;;;;;;;;5070421;28;20048;-70
2022/04/21 07:06:18;;;;;;;10.23;5.82;;;;;;;;;;5068250;28;20092;-69
2022/04/21 07:09:11;;;;;;;7.53;5.25;;;;;;;;;;5070422;28;20037;-69
2022/04/21 07:11:55;;;;;;;8.50;5.63;;;;;;;;;;5085249;28;20064;-69
2022/04/21 07:14:26;;;;;;;9.70;5.55;;;;;;;;;;5086109;28;20045;-69
2022/04/21 07:20:23;;;;;;;;;;;;;;;;;;;;;
2022/04/21 07:23:19;;;;;;;7.00;5.05;;;;;;;;;;5070609;28;20102;-68
2022/04/21 07:25:52;;;;;;;9.77;4.80;;;;;;;;;;5070043;28;20606;-69
2022/04/21 07:28:24;;;;;;;7.43;4.95;;;;;;;;;;5070527;28;20427;-69
2022/04/21 07:31:02;;;;;;;5.78;4.57;;;;;;;;;;5070279;28;20048;-69
2022/04/21 07:33:49;;;;;;;6.20;4.85;;;;;;;;;;5083787;28;20509;-69
2022/04/21 07:36:34;;;;;;;6.15;4.45;;;;;;;;;;5065939;28;20048;-69
2022/04/21 07:39:26;;;;;;;10.48;4.55;;;;;;;;;;5066887;28;20096;-69
2022/04/21 07:45:08;;;;;;;6.65;3.72;;;;;;;;;;5057290;28;20562;-69
2022/04/21 07:51:01;;;;;;;8.48;4.20;;;;;;;;;;4995627;28;20435;-69
2022/04/21 07:53:39;;;;;;;6.03;3.60;;;;;;;;;;5026834;28;20050;-69
2022/04/21 07:56:36;;;;;;;4.95;3.97;;;;;;;;;;4969807;28;20078;-69
2022/04/21 07:59:27;;;;;;;5.00;3.53;;;;;;;;;;4970045;28;20065;-69
2022/04/21 08:02:35;;;;;;;5.65;3.42;;;;;;;;;;4947402;28;20519;-69
2022/04/21 08:05:04;;;;;;;6.75;3.47;;;;;;;;;;4952617;28;20057;-69
2022/04/21 08:07:45;;;;;;;6.80;3.47;;;;;;;;;;4953140;28;20646;-69
2022/04/21 08:10:36;;;;;;;7.28;3.50;;;;;;;;;;4936134;28;20082;-69
2022/04/21 08:16:37;;;;;;;4.38;2.88;;;;;;;;;;4949750;28;20683;-69
2022/04/21 08:19:06;;;;;;;9.90;3.10;;;;;;;;;;4912356;29;20580;-69
2022/04/21 08:21:37;;;;;;;7.05;3.20;;;;;;;;;;4949692;28;20051;-70
2022/04/21 08:35:58;;;;;;;3.58;2.50;;;;;;;;;;5065716;28;20052;-69
2022/04/21 08:38:56;;;;;;;5.13;2.78;;;;;;;;;;5066082;28;20135;-69
2022/04/21 08:41:45;;;;;;;2.65;2.17;;;;;;;;;;5076237;28;20473;-69
2022/04/21 08:44:33;;;;;;;4.40;2.67;;;;;;;;;;5049949;28;20102;-68
2022/04/21 08:47:19;;;;;;;5.20;2.58;;;;;;;;;;5066601;28;20560;-69
2022/04/21 08:50:06;;;;;;;4.50;2.72;;;;;;;;;;5053124;28;20500;-69
2022/04/21 08:53:03;;;;;;;3.97;3.00;;;;;;;;;;5052121;28;20048;-69
2022/04/21 08:55:44;;;;;;;4.50;2.78;;;;;;;;;;5066938;28;20044;-68
2022/04/21 08:58:48;;;;;;;4.97;2.72;;;;;;;;;;5067738;28;20048;-69
2022/04/21 09:01:44;;;;;;;5.30;2.58;;;;;;;;;;5067678;28;20389;-70
2022/04/21 09:04:25;;;;;;;4.53;2.65;;;;;;;;;;5057523;28;20553;-69
2022/04/21 09:07:12;;;;;;;4.03;2.80;;;;;;;;;;5065705;28;21272;-70
2022/04/21 09:09:38;;;;;;;7.88;3.13;;;;;;;;;;5063168;28;20036;-69
2022/04/21 09:12:58;;;;;;;;;;;;;;;;;;;;;
2022/04/21 09:15:37;;;;;;;7.65;3.15;;;;;;;;;;5049820;28;20569;-69
2022/04/21 09:27:58;;;;;;;7.88;2.88;;;;;;;;;;5066356;28;20105;-70
2022/04/21 09:30:25;;;;;;;6.50;3.00;;;;;;;;;;5013962;28;20037;-69
2022/04/21 09:33:20;;;;;;;6.05;2.65;;;;;;;;;;5048962;28;20554;-69
2022/04/21 09:36:11;;;;;;;4.53;2.90;;;;;;;;;;5048427;28;20063;-69
2022/04/21 09:38:42;;;;;;;4.07;2.88;;;;;;;;;;5063886;28;20074;-69
2022/04/21 09:47:31;;;;;;;4.70;2.67;;;;;;;;;;5054111;28;20044;-69
2022/04/21 09:57:01;;;;;;;4.72;2.50;;;;;;;;;;5066305;28;20562;-69
2022/04/21 10:03:06;;;;;;;4.32;2.50;;;;;;;;;;5022868;28;20552;-69
2022/04/21 10:06:04;;;;;;;7.43;2.80;;;;;;;;;;5023976;28;20056;-69
2022/04/21 10:08:40;;;;;;;5.03;2.67;;;;;;;;;;5075086;28;20048;-69
2022/04/21 10:11:07;;;;;;;4.10;2.80;;;;;;;;;;5067853;28;20921;-69
2022/04/21 10:13:34;;;;;;;4.50;2.60;;;;;;;;;;5070145;28;20160;-69
2022/04/21 10:16:01;;;;;;;4.32;2.72;;;;;;;;;;5083373;28;20127;-69
2022/04/21 10:18:27;;;;;;;5.60;2.90;;;;;;;;;;5067024;28;20040;-69
2022/04/21 10:20:57;;;;;;;4.95;2.38;;;;;;;;;;5071637;28;20588;-69
2022/04/21 10:23:26;;;;;;;3.25;2.50;;;;;;;;;;5068876;28;20527;-69
2022/04/21 10:26:03;;;;;;;5.28;2.30;;;;;;;;;;5064683;28;20043;-69
2022/04/21 10:28:42;;;;;;;4.03;2.22;;;;;;;;;;5068706;28;20051;-69
2022/04/21 10:31:30;;;;;;;5.13;2.60;;;;;;;;;;5068500;28;20039;-69
2022/04/21 10:34:00;;;;;;;6.18;2.40;;;;;;;;;;5070192;28;20073;-69
2022/04/21 10:36:37;;;;;;;4.28;2.08;;;;;;;;;;5068651;28;20036;-69
2022/04/21 10:39:10;;;;;;;4.65;1.90;;;;;;;;;;5068333;28;20049;-69
2022/04/21 10:41:37;;;;;;;8.07;2.10;;;;;;;;;;5070504;28;20506;-69
2022/04/21 10:44:03;;;;;;;5.25;2.05;;;;;;;;;;5070197;28;20060;-69
2022/04/21 10:46:30;;;;;;;3.13;2.05;;;;;;;;;;5070690;28;20070;-69
2022/04/21 10:48:58;;;;;;;3.08;2.20;;;;;;;;;;5070718;28;20128;-69
2022/04/21 10:57:47;;;;;;;3.55;2.47;;;;;;;;;;5071008;28;20071;-69
2022/04/21 11:00:27;;;;;;;3.15;2.20;;;;;;;;;;5069751;28;20752;-69
2022/04/21 11:03:06;;;;;;;4.50;2.05;;;;;;;;;;5052921;28;20064;-69
2022/04/21 11:05:33;;;;;;;5.50;2.20;;;;;;;;;;5070732;28;20111;-69
2022/04/21 11:08:00;;;;;;;3.15;2.25;;;;;;;;;;5069484;28;20075;-69
2022/04/21 11:10:26;;;;;;;5.57;2.35;;;;;;;;;;5069652;28;20059;-69
2022/04/21 11:12:52;;;;;;;3.30;2.20;;;;;;;;;;5069893;28;20122;-69
2022/04/21 11:15:37;;;;;;;4.20;2.30;;;;;;;;;;5070733;28;20117;-70
2022/04/21 11:18:14;;;;;;;5.20;1.90;;;;;;;;;;5070945;28;20090;-69
2022/04/21 11:20:44;;;;;;;3.60;2.30;;;;;;;;;;5053631;28;20392;-69
2022/04/21 11:23:11;;;;;;;5.40;2.47;;;;;;;;;;5071539;28;20500;-69
2022/04/21 11:25:37;;;;;;;5.47;2.30;;;;;;;;;;5070612;28;20052;-70
2022/04/21 11:28:03;;;;;;;5.07;2.40;;;;;;;;;;5053051;28;20054;-70
2022/04/21 11:30:31;;;;;;;3.97;2.03;;;;;;;;;;5069844;28;20045;-69
2022/04/21 11:32:57;;;;;;;3.30;2.10;;;;;;;;;;5069673;28;20048;-69
2022/04/21 11:35:24;;;;;;;6.13;2.35;;;;;;;;;;5069729;28;20057;-69
2022/04/21 11:37:50;;;;;;;4.05;2.38;;;;;;;;;;5069870;28;20037;-69
2022/04/21 11:40:23;;;;;;;3.65;2.08;;;;;;;;;;5070567;28;20028;-70
2022/04/21 11:42:50;;;;;;;11.30;2.08;;;;;;;;;;5070070;28;20469;-69
2022/04/21 11:45:23;;;;;;;4.40;2.30;;;;;;;;;;5069201;28;20075;-69
2022/04/21 11:47:49;;;;;;;3.78;2.47;;;;;;;;;;5070193;28;20044;-69
2022/04/21 11:50:19;;;;;;;3.63;2.13;;;;;;;;;;5052003;28;20040;-70
2022/04/21 11:52:46;;;;;;;2.78;1.98;;;;;;;;;;5069130;28;20068;-69
2022/04/21 11:55:15;;;;;;;4.22;2.25;;;;;;;;;;5071189;28;20044;-69
2022/04/21 11:57:45;;;;;;;3.58;2.30;;;;;;;;;;5053260;28;20746;-69
2022/04/21 12:00:11;;;;;;;4.20;2.20;;;;;;;;;;5069916;28;20064;-69
2022/04/21 12:08:08;;;;;;;3.63;2.22;;;;;;;;;;5067964;28;20138;-69
2022/04/21 12:10:37;;;;;;;3.10;2.55;;;;;;;;;;5068881;28;20097;-70
2022/04/21 12:13:04;;;;;;;6.78;2.60;;;;;;;;;;5069609;28;20106;-69
2022/04/21 12:15:30;;;;;;;4.28;2.50;;;;;;;;;;5068906;28;20087;-70
2022/04/21 12:18:00;;;;;;;6.50;3.28;;;;;;;;;;5069063;28;20043;-70
2022/04/21 12:20:27;;;;;;;4.95;2.85;;;;;;;;;;5069986;28;20597;-69
2022/04/21 12:22:53;;;;;;;3.70;2.67;;;;;;;;;;5086456;28;20117;-70
2022/04/21 12:25:20;;;;;;;3.47;2.45;;;;;;;;;;5068670;28;20040;-70
2022/04/21 12:27:46;;;;;;;5.55;2.50;;;;;;;;;;5068975;28;20040;-71
2022/04/21 12:30:12;;;;;;;3.60;2.53;;;;;;;;;;5069059;28;20056;-70
2022/04/21 12:32:40;;;;;;;5.95;2.60;;;;;;;;;;5067491;28;20029;-69
2022/04/21 12:35:07;;;;;;;3.38;2.50;;;;;;;;;;5069598;28;20063;-69
2022/04/21 12:37:44;;;;;;;3.63;2.50;;;;;;;;;;5066993;28;20044;-69
2022/04/21 12:40:14;;;;;;;3.95;2.67;;;;;;;;;;5067565;28;20238;-69
2022/04/21 12:42:41;;;;;;;4.22;2.28;;;;;;;;;;5051291;28;20040;-69
2022/04/21 12:45:08;;;;;;;4.45;2.10;;;;;;;;;;5051075;28;20075;-69
2022/04/21 12:47:47;;;;;;;5.28;2.92;;;;;;;;;;5067794;28;20048;-69
2022/04/21 12:50:20;;;;;;;6.68;2.78;;;;;;;;;;5067595;28;20048;-69
2022/04/21 12:52:47;;;;;;;4.18;2.88;;;;;;;;;;5067536;28;20044;-69
2022/04/21 12:55:22;;;;;;;4.65;2.70;;;;;;;;;;5068297;28;20041;-69
2022/04/21 12:58:18;;;;;;;6.90;3.08;;;;;;;;;;5067857;28;20426;-70
2022/04/21 13:00:49;;;;;;;7.05;2.80;;;;;;;;;;5050462;28;20055;-70
2022/04/21 13:03:15;;;;;;;5.13;2.85;;;;;;;;;;5067998;28;20085;-70
2022/04/21 13:05:52;;;;;;;5.45;2.60;;;;;;;;;;5067872;28;20048;-69
2022/04/21 13:08:18;;;;;;;5.80;2.97;;;;;;;;;;5067588;28;20075;-69
2022/04/21 13:10:44;;;;;;;5.10;2.92;;;;;;;;;;5067213;28;20052;-69
2022/04/21 13:13:10;;;;;;;6.53;2.90;;;;;;;;;;5067751;28;20045;-69
2022/04/21 13:15:36;;;;;;;3.40;2.60;;;;;;;;;;5050139;28;20040;-69
2022/04/21 13:18:03;;;;;;;4.93;3.22;;;;;;;;;;5067318;28;20060;-70
2022/04/21 13:23:13;;;;;;;6.30;3.30;;;;;;;;;;5067530;28;20054;-70
2022/04/21 13:25:39;;;;;;;6.18;3.55;;;;;;;;;;5067801;28;20473;-69
2022/04/21 13:28:06;;;;;;;5.22;3.10;;;;;;;;;;5067414;28;20472;-70
2022/04/21 13:30:32;;;;;;;5.90;3.22;;;;;;;;;;5067312;28;20103;-69
2022/04/21 13:35:42;;;;;;;5.45;3.55;;;;;;;;;;5067396;28;20090;-69
2022/04/21 13:38:09;;;;;;;3.92;2.95;;;;;;;;;;5066857;28;20372;-69
2022/04/21 13:40:35;;;;;;;4.07;3.10;;;;;;;;;;5067352;28;20044;-70
2022/04/21 13:43:01;;;;;;;4.18;3.30;;;;;;;;;;5050607;28;20076;-69
2022/04/21 13:45:27;;;;;;;6.50;3.17;;;;;;;;;;5066331;28;20047;-69
2022/04/21 13:47:53;;;;;;;4.30;2.80;;;;;;;;;;5066488;28;20560;-69
2022/04/21 13:50:19;;;;;;;4.45;3.20;;;;;;;;;;5081956;28;20110;-69
2022/04/21 13:52:45;;;;;;;5.72;3.00;;;;;;;;;;5067411;28;20040;-69
2022/04/21 13:55:11;;;;;;;9.85;2.85;;;;;;;;;;5066627;28;20055;-69
2022/04/21 13:57:38;;;;;;;6.03;3.15;;;;;;;;;;5067633;28;20489;-69
2022/04/21 14:00:06;;;;;;;3.63;3.00;;;;;;;;;;5050508;28;20051;-69
2022/04/21 14:02:32;;;;;;;5.85;3.45;;;;;;;;;;5067007;28;20049;-69
2022/04/21 14:04:58;;;;;;;5.07;2.95;;;;;;;;;;5066132;28;20040;-70
2022/04/21 14:07:24;;;;;;;7.88;3.28;;;;;;;;;;5067485;28;20473;-69
2022/04/21 14:09:50;;;;;;;5.22;3.05;;;;;;;;;;5067176;28;20045;-69
2022/04/21 14:12:18;;;;;;;6.05;2.90;;;;;;;;;;5066513;28;20047;-69
2022/04/21 14:14:47;;;;;;;5.05;3.40;;;;;;;;;;5079973;28;20044;-69
2022/04/21 14:17:13;;;;;;;7.60;3.13;;;;;;;;;;5080529;28;20095;-69
2022/04/21 14:19:39;;;;;;;5.43;3.30;;;;;;;;;;5066536;28;20051;-69
2022/04/21 14:22:05;;;;;;;7.05;3.72;;;;;;;;;;5067506;28;20123;-69
2022/04/21 14:24:32;;;;;;;5.18;3.20;;;;;;;;;;5065135;28;20052;-69
2022/04/21 14:26:59;;;;;;;6.13;3.42;;;;;;;;;;5066564;28;20369;-69
2022/04/21 14:29:25;;;;;;;7.00;3.55;;;;;;;;;;5066236;28;20472;-69
2022/04/21 14:31:51;;;;;;;4.68;3.10;;;;;;;;;;5066119;28;20086;-69
2022/04/21 14:34:17;;;;;;;5.38;3.33;;;;;;;;;;5066970;28;20069;-69
2022/04/21 14:36:43;;;;;;;4.80;3.00;;;;;;;;;;5067343;28;20097;-69
2022/04/21 14:44:39;;;;;;;7.72;3.50;;;;;;;;;;5066401;28;20114;-69
2022/04/21 14:47:07;;;;;;;6.28;3.85;;;;;;;;;;5066232;28;20049;-69
2022/04/21 14:49:36;;;;;;;9.57;4.32;;;;;;;;;;5066501;28;20044;-69
2022/04/21 14:52:03;;;;;;;6.18;3.50;;;;;;;;;;5077471;28;20043;-69
2022/04/21 14:54:29;;;;;;;4.25;3.50;;;;;;;;;;5066886;28;20481;-70
2022/04/21 14:56:55;;;;;;;7.90;3.70;;;;;;;;;;5068421;28;20491;-69
2022/04/21 14:59:22;;;;;;;5.13;3.58;;;;;;;;;;5071098;28;20404;-73
2022/04/21 15:01:48;;;;;;;5.05;3.60;;;;;;;;;;5069036;28;20059;-69
2022/04/21 15:04:15;;;;;;;5.35;3.50;;;;;;;;;;5069127;28;20079;-69
2022/04/21 15:06:45;;;;;;;6.68;3.53;;;;;;;;;;5069268;28;20048;-69
2022/04/21 15:09:11;;;;;;;6.68;3.58;;;;;;;;;;5069417;28;20051;-68
2022/04/21 15:11:41;;;;;;;6.72;3.10;;;;;;;;;;5069461;28;20041;-68
2022/04/21 15:14:07;;;;;;;5.10;3.33;;;;;;;;;;5067592;28;20054;-68
2022/04/21 15:16:34;;;;;;;6.80;3.60;;;;;;;;;;5069250;28;20105;-68
2022/04/21 15:19:00;;;;;;;6.85;3.60;;;;;;;;;;5069887;28;20469;-69
2022/04/21 15:21:26;;;;;;;4.72;3.35;;;;;;;;;;5068836;28;20052;-68
2022/04/21 15:23:52;;;;;;;6.05;3.53;;;;;;;;;;5070106;28;20048;-69
2022/04/21 15:26:18;;;;;;;6.72;3.38;;;;;;;;;;5069381;28;20047;-69
2022/04/21 15:28:49;;;;;;;4.97;3.67;;;;;;;;;;5053853;28;20047;-68
2022/04/21 15:31:15;;;;;;;6.53;3.90;;;;;;;;;;5068327;28;20055;-69
2022/04/21 15:33:41;;;;;;;7.35;3.63;;;;;;;;;;5069538;28;20140;-68
2022/04/21 15:36:07;;;;;;;7.63;3.75;;;;;;;;;;5070138;28;20040;-68
2022/04/21 15:38:33;;;;;;;6.75;3.60;;;;;;;;;;5065674;28;20044;-68
2022/04/21 15:40:59;;;;;;;5.82;3.60;;;;;;;;;;5069007;28;20044;-68
2022/04/21 15:43:26;;;;;;;6.78;3.90;;;;;;;;;;5069013;28;20040;-68
2022/04/21 15:45:52;;;;;;;7.80;3.90;;;;;;;;;;5068857;28;20040;-68
2022/04/21 15:48:19;;;;;;;5.60;3.90;;;;;;;;;;5067832;28;20036;-68
2022/04/21 15:50:46;;;;;;;10.35;3.53;;;;;;;;;;5063699;28;20059;-68
2022/04/21 15:58:53;;;;;;;7.57;3.67;;;;;;;;;;5067195;28;20122;-68
2022/04/21 16:01:20;;;;;;;9.43;3.78;;;;;;;;;;5068969;28;20127;-68
2022/04/21 16:03:47;;;;;;;10.20;4.13;;;;;;;;;;5066453;28;20032;-68
2022/04/21 16:06:13;;;;;;;7.90;3.92;;;;;;;;;;5064784;28;20036;-68
2022/04/21 16:08:39;;;;;;;5.80;3.80;;;;;;;;;;5066439;28;20052;-68
2022/04/21 16:11:05;;;;;;;6.00;3.78;;;;;;;;;;5066636;28;20503;-68
2022/04/21 16:13:32;;;;;;;7.55;3.75;;;;;;;;;;5050368;28;20473;-69
2022/04/21 16:15:58;;;;;;;7.95;3.50;;;;;;;;;;5066961;28;20075;-68
2022/04/21 16:18:24;;;;;;;6.35;3.28;;;;;;;;;;5067197;28;20048;-69
2022/04/21 16:20:50;;;;;;;4.65;3.20;;;;;;;;;;5066352;28;20056;-68
2022/04/21 16:23:17;;;;;;;6.13;3.67;;;;;;;;;;5064407;28;20046;-68
2022/04/21 16:25:43;;;;;;;5.93;3.50;;;;;;;;;;5066248;28;20122;-68
2022/04/21 16:28:09;;;;;;;7.25;3.28;;;;;;;;;;5066815;28;20079;-68
2022/04/21 16:30:35;;;;;;;8.00;3.50;;;;;;;;;;5067319;28;20504;-68
2022/04/21 16:33:01;;;;;;;8.45;3.67;;;;;;;;;;5063331;28;20047;-68
2022/04/21 16:35:27;;;;;;;9.05;4.18;;;;;;;;;;5043425;28;20057;-68
2022/04/21 16:37:53;;;;;;;6.40;3.80;;;;;;;;;;5067480;28;20075;-68
2022/04/21 16:40:19;;;;;;;6.53;3.58;;;;;;;;;;5064172;28;20130;-69
2022/04/21 16:42:49;;;;;;;5.03;3.70;;;;;;;;;;5065351;28;20567;-68
2022/04/21 16:45:15;;;;;;;5.38;3.42;;;;;;;;;;5064229;28;20037;-68
2022/04/21 16:47:41;;;;;;;7.25;3.58;;;;;;;;;;5065530;28;20033;-68
2022/04/21 16:50:07;;;;;;;6.50;3.72;;;;;;;;;;5065329;28;20086;-68
2022/04/21 16:52:34;;;;;;;5.65;3.75;;;;;;;;;;5065133;28;20829;-68
2022/04/21 16:55:01;;;;;;;7.75;4.40;;;;;;;;;;5066393;28;20124;-68
2022/04/21 16:57:33;;;;;;;7.13;4.10;;;;;;;;;;5066406;28;20036;-68
2022/04/21 16:59:59;;;;;;;6.30;4.03;;;;;;;;;;5062319;28;20044;-68
2022/04/21 17:05:10;;;;;;;5.90;3.75;;;;;;;;;;5066770;28;20078;-68
2022/04/21 17:07:36;;;;;;;6.10;4.00;;;;;;;;;;5065718;28;20053;-68
2022/04/21 17:10:02;;;;;;;6.97;3.72;;;;;;;;;;5065282;28;20052;-68
2022/04/21 17:12:28;;;;;;;7.50;3.92;;;;;;;;;;5065548;28;20045;-68
2022/04/21 17:14:54;;;;;;;8.68;4.13;;;;;;;;;;5066471;28;20048;-68
2022/04/21 17:17:20;;;;;;;5.75;3.95;;;;;;;;;;5065734;28;20040;-68
2022/04/21 17:19:46;;;;;;;9.00;4.32;;;;;;;;;;5064516;28;20056;-68
2022/04/21 17:22:12;;;;;;;6.90;3.90;;;;;;;;;;5065018;28;21452;-68
2022/04/21 17:24:38;;;;;;;7.20;4.03;;;;;;;;;;5064242;28;20393;-68
2022/04/21 17:27:05;;;;;;;8.00;4.25;;;;;;;;;;5064079;28;20437;-68
2022/04/21 17:29:31;;;;;;;5.82;4.32;;;;;;;;;;5063894;28;20052;-68
2022/04/21 17:31:57;;;;;;;6.78;4.28;;;;;;;;;;5081805;28;20515;-68
2022/04/21 17:34:23;;;;;;;11.20;4.90;;;;;;;;;;5066014;28;20107;-68
2022/04/21 17:36:49;;;;;;;6.97;5.13;;;;;;;;;;5064507;28;20106;-68
2022/04/21 17:39:17;;;;;;;11.15;6.15;;;;;;;;;;5063975;28;20044;-68
2022/04/21 17:41:43;;;;;;;9.77;5.65;;;;;;;;;;5061857;28;20469;-68
2022/04/21 17:44:11;;;;;;;10.07;6.15;;;;;;;;;;5066305;28;20040;-68
2022/04/21 17:46:37;;;;;;;9.30;6.35;;;;;;;;;;5063484;28;20048;-68
2022/04/21 17:49:03;;;;;;;8.27;6.00;;;;;;;;;;5064918;28;20044;-68
2022/04/21 17:51:29;;;;;;;9.85;6.40;;;;;;;;;;5061833;28;20056;-68
2022/04/21 17:53:56;;;;;;;8.57;6.07;;;;;;;;;;5063159;28;20050;-68
2022/04/21 17:56:23;;;;;;;9.65;6.10;;;;;;;;;;5064577;28;20060;-68
2022/04/21 17:58:49;;;;;;;8.88;6.63;;;;;;;;;;5079034;28;20058;-70
2022/04/21 18:01:15;;;;;;;11.13;6.65;;;;;;;;;;5065077;28;20059;-68
2022/04/21 18:03:41;;;;;;;11.18;6.50;;;;;;;;;;5064426;28;20358;-68
2022/04/21 18:06:07;;;;;;;9.70;6.55;;;;;;;;;;5063644;28;20084;-68
2022/04/21 18:08:33;;;;;;;10.13;6.57;;;;;;;;;;5064817;28;20098;-68
2022/04/21 18:10:59;;;;;;;9.02;7.00;;;;;;;;;;5058862;28;20098;-68
2022/04/21 18:13:25;;;;;;;9.68;6.53;;;;;;;;;;5065362;28;20041;-68
2022/04/21 18:15:51;;;;;;;9.98;6.78;;;;;;;;;;5063619;28;20147;-68
2022/04/21 18:18:17;;;;;;;8.80;6.80;;;;;;;;;;5065036;28;20091;-68
2022/04/21 18:20:43;;;;;;;11.55;6.90;;;;;;;;;;5064885;28;20142;-68
2022/04/21 18:23:10;;;;;;;11.60;7.32;;;;;;;;;;5065640;28;20071;-68
2022/04/21 18:25:36;;;;;;;8.98;7.25;;;;;;;;;;5061517;28;20041;-68
2022/04/21 18:28:02;;;;;;;11.90;7.15;;;;;;;;;;5065379;28;20674;-68
2022/04/21 18:30:29;;;;;;;13.38;7.35;;;;;;;;;;5065822;28;20086;-68
2022/04/21 18:32:55;;;;;;;9.88;7.05;;;;;;;;;;5068559;28;20123;-68
2022/04/21 18:35:21;;;;;;;8.98;6.95;;;;;;;;;;5067182;28;20078;-68
2022/04/21 18:37:47;;;;;;;9.55;7.15;;;;;;;;;;5066439;28;20057;-68
2022/04/21 18:40:14;;;;;;;11.20;6.88;;;;;;;;;;5066891;28;20056;-68